sensor_id;sensor_type;location;lat;lon;timestamp;P1;durP1;ratioP1;P2;durP2;ratioP2
76157;SDS011;64907;51.574;6.502;2023-10-08T00:00:45;7.10;;;5.07;;
76157;SDS011;64907;51.574;6.502;2023-10-08T00:03:20;7.72;;;5.13;;
76157;SDS011;64907;51.574;6.502;2023-10-08T00:05:46;8.40;;;5.00;;
76157;SDS011;64907;51.574;6.502;2023-10-08T00:08:11;10.68;;;5.55;;
76157;SDS011;64907;51.574;6.502;2023-10-08T00:10:37;7.05;;;5.80;;
76157;SDS011;64907;51.574;6.502;2023-10-08T00:13:05;12.40;;;5.45;;
76157;SDS011;64907;51.574;6.502;2023-10-08T00:15:33;5.82;;;5.07;;
76157;SDS011;64907;51.574;6.502;2023-10-08T00:17:58;5.95;;;5.18;;
76157;SDS011;64907;51.574;6.502;2023-10-08T00:20:26;7.18;;;5.35;;
76157;SDS011;64907;51.574;6.502;2023-10-08T00:22:53;10.32;;;5.30;;
76157;SDS011;64907;51.574;6.502;2023-10-08T00:25:20;8.73;;;5.13;;
76157;SDS011;64907;51.574;6.502;2023-10-08T00:27:45;10.90;;;4.97;;
76157;SDS011;64907;51.574;6.502;2023-10-08T00:30:14;8.60;;;5.15;;
76157;SDS011;64907;51.574;6.502;2023-10-08T00:32:43;6.95;;;4.75;;
76157;SDS011;64907;51.574;6.502;2023-10-08T00:35:08;8.90;;;5.68;;
76157;SDS011;64907;51.574;6.502;2023-10-08T00:37:37;11.32;;;5.35;;
76157;SDS011;64907;51.574;6.502;2023-10-08T00:40:02;10.00;;;5.93;;
76157;SDS011;64907;51.574;6.502;2023-10-08T00:42:36;7.00;;;5.40;;
76157;SDS011;64907;51.574;6.502;2023-10-08T00:45:01;9.18;;;5.72;;
76157;SDS011;64907;51.574;6.502;2023-10-08T00:47:30;12.68;;;6.93;;
76157;SDS011;64907;51.574;6.502;2023-10-08T00:49:59;8.60;;;6.15;;
76157;SDS011;64907;51.574;6.502;2023-10-08T00:52:30;5.28;;;4.80;;
76157;SDS011;64907;51.574;6.502;2023-10-08T00:55:03;8.75;;;5.07;;
76157;SDS011;64907;51.574;6.502;2023-10-08T00:57:28;9.43;;;5.65;;
76157;SDS011;64907;51.574;6.502;2023-10-08T00:59:55;6.90;;;5.40;;
76157;SDS011;64907;51.574;6.502;2023-10-08T01:02:24;11.15;;;6.18;;
76157;SDS011;64907;51.574;6.502;2023-10-08T01:04:52;11.85;;;5.97;;
76157;SDS011;64907;51.574;6.502;2023-10-08T01:07:19;6.22;;;5.63;;
76157;SDS011;64907;51.574;6.502;2023-10-08T01:09:44;9.40;;;5.75;;
76157;SDS011;64907;51.574;6.502;2023-10-08T01:14:44;11.07;;;5.93;;
76157;SDS011;64907;51.574;6.502;2023-10-08T01:17:12;8.40;;;6.10;;
76157;SDS011;64907;51.574;6.502;2023-10-08T01:19:44;7.68;;;5.88;;
76157;SDS011;64907;51.574;6.502;2023-10-08T01:22:16;8.82;;;5.68;;
76157;SDS011;64907;51.574;6.502;2023-10-08T01:24:46;11.90;;;6.38;;
76157;SDS011;64907;51.574;6.502;2023-10-08T01:27:15;8.52;;;6.18;;
76157;SDS011;64907;51.574;6.502;2023-10-08T01:29:46;6.13;;;5.53;;
76157;SDS011;64907;51.574;6.502;2023-10-08T01:32:12;8.10;;;5.50;;
76157;SDS011;64907;51.574;6.502;2023-10-08T01:34:41;10.82;;;6.30;;
76157;SDS011;64907;51.574;6.502;2023-10-08T01:37:10;6.20;;;5.35;;
76157;SDS011;64907;51.574;6.502;2023-10-08T01:39:37;8.77;;;6.18;;
76157;SDS011;64907;51.574;6.502;2023-10-08T01:42:07;10.40;;;5.80;;
76157;SDS011;64907;51.574;6.502;2023-10-08T01:44:40;12.50;;;5.82;;
76157;SDS011;64907;51.574;6.502;2023-10-08T01:47:05;9.40;;;5.97;;
76157;SDS011;64907;51.574;6.502;2023-10-08T01:49:31;8.65;;;6.05;;
76157;SDS011;64907;51.574;6.502;2023-10-08T01:51:58;9.18;;;5.68;;
76157;SDS011;64907;51.574;6.502;2023-10-08T01:54:24;10.35;;;6.00;;
76157;SDS011;64907;51.574;6.502;2023-10-08T01:56:52;8.02;;;6.03;;
76157;SDS011;64907;51.574;6.502;2023-10-08T01:59:17;8.75;;;5.57;;
76157;SDS011;64907;51.574;6.502;2023-10-08T02:01:43;9.90;;;6.17;;
76157;SDS011;64907;51.574;6.502;2023-10-08T02:04:09;11.05;;;6.68;;
76157;SDS011;64907;51.574;6.502;2023-10-08T02:06:36;11.52;;;6.07;;
76157;SDS011;64907;51.574;6.502;2023-10-08T02:09:02;10.17;;;6.10;;
76157;SDS011;64907;51.574;6.502;2023-10-08T02:11:43;9.75;;;6.70;;
76157;SDS011;64907;51.574;6.502;2023-10-08T02:14:08;9.00;;;5.40;;
76157;SDS011;64907;51.574;6.502;2023-10-08T02:16:34;7.88;;;5.88;;
76157;SDS011;64907;51.574;6.502;2023-10-08T02:18:59;8.52;;;5.57;;
76157;SDS011;64907;51.574;6.502;2023-10-08T02:21:24;8.60;;;5.27;;
76157;SDS011;64907;51.574;6.502;2023-10-08T02:23:50;7.50;;;5.85;;
76157;SDS011;64907;51.574;6.502;2023-10-08T02:26:18;10.55;;;6.28;;
76157;SDS011;64907;51.574;6.502;2023-10-08T02:28:44;8.00;;;5.32;;
76157;SDS011;64907;51.574;6.502;2023-10-08T02:31:09;10.63;;;5.63;;
76157;SDS011;64907;51.574;6.502;2023-10-08T02:33:35;6.82;;;5.72;;
76157;SDS011;64907;51.574;6.502;2023-10-08T02:36:02;7.53;;;6.03;;
76157;SDS011;64907;51.574;6.502;2023-10-08T02:38:29;13.15;;;6.13;;
76157;SDS011;64907;51.574;6.502;2023-10-08T02:40:54;7.88;;;6.18;;
76157;SDS011;64907;51.574;6.502;2023-10-08T02:43:22;13.85;;;6.28;;
76157;SDS011;64907;51.574;6.502;2023-10-08T02:45:48;10.45;;;6.18;;
76157;SDS011;64907;51.574;6.502;2023-10-08T02:48:14;8.43;;;5.80;;
76157;SDS011;64907;51.574;6.502;2023-10-08T02:50:44;8.10;;;5.85;;
76157;SDS011;64907;51.574;6.502;2023-10-08T02:53:10;10.25;;;6.38;;
76157;SDS011;64907;51.574;6.502;2023-10-08T02:55:39;9.98;;;5.80;;
76157;SDS011;64907;51.574;6.502;2023-10-08T03:00:44;8.48;;;5.70;;
76157;SDS011;64907;51.574;6.502;2023-10-08T03:03:12;10.85;;;5.47;;
76157;SDS011;64907;51.574;6.502;2023-10-08T03:05:50;8.73;;;6.10;;
76157;SDS011;64907;51.574;6.502;2023-10-08T03:08:16;6.80;;;5.75;;
76157;SDS011;64907;51.574;6.502;2023-10-08T03:10:45;12.13;;;6.30;;
76157;SDS011;64907;51.574;6.502;2023-10-08T03:13:13;9.07;;;6.07;;
76157;SDS011;64907;51.574;6.502;2023-10-08T03:15:42;8.20;;;5.93;;
76157;SDS011;64907;51.574;6.502;2023-10-08T03:18:32;11.85;;;5.50;;
76157;SDS011;64907;51.574;6.502;2023-10-08T03:21:04;10.32;;;6.50;;
76157;SDS011;64907;51.574;6.502;2023-10-08T03:23:31;11.02;;;5.72;;
76157;SDS011;64907;51.574;6.502;2023-10-08T03:26:00;12.82;;;6.50;;
76157;SDS011;64907;51.574;6.502;2023-10-08T03:28:35;10.93;;;5.53;;
76157;SDS011;64907;51.574;6.502;2023-10-08T03:31:01;11.68;;;5.70;;
76157;SDS011;64907;51.574;6.502;2023-10-08T03:33:41;12.75;;;5.60;;
76157;SDS011;64907;51.574;6.502;2023-10-08T03:36:08;8.60;;;6.30;;
76157;SDS011;64907;51.574;6.502;2023-10-08T03:38:45;7.90;;;5.93;;
76157;SDS011;64907;51.574;6.502;2023-10-08T03:41:24;8.02;;;5.60;;
76157;SDS011;64907;51.574;6.502;2023-10-08T03:43:54;10.93;;;5.95;;
76157;SDS011;64907;51.574;6.502;2023-10-08T03:46:38;6.45;;;5.43;;
76157;SDS011;64907;51.574;6.502;2023-10-08T03:49:11;9.23;;;5.63;;
76157;SDS011;64907;51.574;6.502;2023-10-08T03:51:48;12.55;;;5.70;;
76157;SDS011;64907;51.574;6.502;2023-10-08T03:54:16;7.90;;;6.20;;
76157;SDS011;64907;51.574;6.502;2023-10-08T03:56:43;10.30;;;5.40;;
76157;SDS011;64907;51.574;6.502;2023-10-08T03:59:13;8.63;;;5.40;;
76157;SDS011;64907;51.574;6.502;2023-10-08T04:01:40;10.40;;;5.32;;
76157;SDS011;64907;51.574;6.502;2023-10-08T04:04:08;10.27;;;6.03;;
76157;SDS011;64907;51.574;6.502;2023-10-08T04:06:40;9.48;;;6.00;;
76157;SDS011;64907;51.574;6.502;2023-10-08T04:09:13;12.90;;;5.97;;
76157;SDS011;64907;51.574;6.502;2023-10-08T04:11:41;11.13;;;6.38;;
76157;SDS011;64907;51.574;6.502;2023-10-08T04:14:21;6.10;;;5.32;;
76157;SDS011;64907;51.574;6.502;2023-10-08T04:16:48;10.10;;;5.28;;
76157;SDS011;64907;51.574;6.502;2023-10-08T04:19:23;8.63;;;6.18;;
76157;SDS011;64907;51.574;6.502;2023-10-08T04:21:52;13.90;;;6.50;;
76157;SDS011;64907;51.574;6.502;2023-10-08T04:24:21;8.75;;;5.97;;
76157;SDS011;64907;51.574;6.502;2023-10-08T04:26:53;11.82;;;6.35;;
76157;SDS011;64907;51.574;6.502;2023-10-08T04:29:21;9.73;;;6.43;;
76157;SDS011;64907;51.574;6.502;2023-10-08T04:31:47;8.52;;;6.22;;
76157;SDS011;64907;51.574;6.502;2023-10-08T04:34:19;10.70;;;5.38;;
76157;SDS011;64907;51.574;6.502;2023-10-08T04:36:48;9.02;;;6.32;;
76157;SDS011;64907;51.574;6.502;2023-10-08T04:39:19;15.20;;;6.05;;
76157;SDS011;64907;51.574;6.502;2023-10-08T04:41:48;8.93;;;6.43;;
76157;SDS011;64907;51.574;6.502;2023-10-08T04:44:18;12.32;;;6.15;;
76157;SDS011;64907;51.574;6.502;2023-10-08T04:46:44;11.73;;;5.82;;
76157;SDS011;64907;51.574;6.502;2023-10-08T04:49:12;7.95;;;5.55;;
76157;SDS011;64907;51.574;6.502;2023-10-08T04:51:54;11.20;;;5.78;;
76157;SDS011;64907;51.574;6.502;2023-10-08T04:54:22;13.85;;;6.78;;
76157;SDS011;64907;51.574;6.502;2023-10-08T04:56:48;7.88;;;6.03;;
76157;SDS011;64907;51.574;6.502;2023-10-08T04:59:14;10.88;;;6.05;;
76157;SDS011;64907;51.574;6.502;2023-10-08T05:01:39;7.63;;;5.60;;
76157;SDS011;64907;51.574;6.502;2023-10-08T05:04:21;13.18;;;6.28;;
76157;SDS011;64907;51.574;6.502;2023-10-08T05:06:57;11.13;;;5.75;;
76157;SDS011;64907;51.574;6.502;2023-10-08T05:09:26;10.80;;;6.15;;
76157;SDS011;64907;51.574;6.502;2023-10-08T05:12:04;10.55;;;6.30;;
76157;SDS011;64907;51.574;6.502;2023-10-08T05:14:48;10.07;;;6.50;;
76157;SDS011;64907;51.574;6.502;2023-10-08T05:17:32;11.90;;;6.60;;
76157;SDS011;64907;51.574;6.502;2023-10-08T05:20:10;14.57;;;6.45;;
76157;SDS011;64907;51.574;6.502;2023-10-08T05:23:05;13.10;;;6.65;;
76157;SDS011;64907;51.574;6.502;2023-10-08T05:25:45;13.80;;;6.88;;
76157;SDS011;64907;51.574;6.502;2023-10-08T05:28:49;8.70;;;6.07;;
76157;SDS011;64907;51.574;6.502;2023-10-08T05:31:28;10.45;;;5.88;;
76157;SDS011;64907;51.574;6.502;2023-10-08T05:34:12;9.02;;;6.22;;
76157;SDS011;64907;51.574;6.502;2023-10-08T05:36:41;11.48;;;6.43;;
76157;SDS011;64907;51.574;6.502;2023-10-08T05:39:24;10.95;;;5.43;;
76157;SDS011;64907;51.574;6.502;2023-10-08T05:41:50;12.93;;;6.67;;
76157;SDS011;64907;51.574;6.502;2023-10-08T05:44:30;11.70;;;5.93;;
76157;SDS011;64907;51.574;6.502;2023-10-08T05:47:04;11.27;;;6.78;;
76157;SDS011;64907;51.574;6.502;2023-10-08T05:49:49;10.65;;;6.57;;
76157;SDS011;64907;51.574;6.502;2023-10-08T05:52:34;12.88;;;6.40;;
76157;SDS011;64907;51.574;6.502;2023-10-08T05:55:17;13.00;;;6.82;;
76157;SDS011;64907;51.574;6.502;2023-10-08T05:57:55;9.32;;;5.95;;
76157;SDS011;64907;51.574;6.502;2023-10-08T06:00:42;13.30;;;6.63;;
76157;SDS011;64907;51.574;6.502;2023-10-08T06:03:26;15.77;;;6.30;;
76157;SDS011;64907;51.574;6.502;2023-10-08T06:08:47;11.05;;;6.03;;
76157;SDS011;64907;51.574;6.502;2023-10-08T06:11:35;10.55;;;6.40;;
76157;SDS011;64907;51.574;6.502;2023-10-08T06:14:10;8.07;;;6.10;;
76157;SDS011;64907;51.574;6.502;2023-10-08T06:16:42;13.00;;;6.95;;
76157;SDS011;64907;51.574;6.502;2023-10-08T06:19:10;13.15;;;7.00;;
76157;SDS011;64907;51.574;6.502;2023-10-08T06:21:37;11.38;;;6.55;;
76157;SDS011;64907;51.574;6.502;2023-10-08T06:24:04;8.98;;;6.22;;
76157;SDS011;64907;51.574;6.502;2023-10-08T06:26:34;10.57;;;6.82;;
76157;SDS011;64907;51.574;6.502;2023-10-08T06:29:01;9.52;;;6.55;;
76157;SDS011;64907;51.574;6.502;2023-10-08T06:31:41;10.80;;;6.75;;
76157;SDS011;64907;51.574;6.502;2023-10-08T06:34:11;14.00;;;6.90;;
76157;SDS011;64907;51.574;6.502;2023-10-08T06:36:37;11.85;;;6.95;;
76157;SDS011;64907;51.574;6.502;2023-10-08T06:39:02;12.07;;;6.65;;
76157;SDS011;64907;51.574;6.502;2023-10-08T06:41:29;10.13;;;6.68;;
76157;SDS011;64907;51.574;6.502;2023-10-08T06:43:58;12.02;;;7.28;;
76157;SDS011;64907;51.574;6.502;2023-10-08T06:46:39;9.73;;;6.72;;
76157;SDS011;64907;51.574;6.502;2023-10-08T06:49:06;12.15;;;7.00;;
76157;SDS011;64907;51.574;6.502;2023-10-08T06:51:36;8.98;;;6.65;;
76157;SDS011;64907;51.574;6.502;2023-10-08T06:54:01;8.82;;;6.93;;
76157;SDS011;64907;51.574;6.502;2023-10-08T06:56:28;12.40;;;6.80;;
76157;SDS011;64907;51.574;6.502;2023-10-08T06:58:53;11.85;;;7.03;;
76157;SDS011;64907;51.574;6.502;2023-10-08T07:01:19;10.75;;;7.10;;
76157;SDS011;64907;51.574;6.502;2023-10-08T07:03:50;10.55;;;6.72;;
76157;SDS011;64907;51.574;6.502;2023-10-08T07:06:16;13.02;;;7.15;;
76157;SDS011;64907;51.574;6.502;2023-10-08T07:08:56;15.75;;;7.38;;
76157;SDS011;64907;51.574;6.502;2023-10-08T07:11:24;7.53;;;6.63;;
76157;SDS011;64907;51.574;6.502;2023-10-08T07:13:51;11.82;;;7.55;;
76157;SDS011;64907;51.574;6.502;2023-10-08T07:16:17;12.00;;;7.25;;
76157;SDS011;64907;51.574;6.502;2023-10-08T07:18:43;11.35;;;7.00;;
76157;SDS011;64907;51.574;6.502;2023-10-08T07:21:17;11.27;;;7.78;;
76157;SDS011;64907;51.574;6.502;2023-10-08T07:23:42;11.88;;;7.43;;
76157;SDS011;64907;51.574;6.502;2023-10-08T07:26:28;10.55;;;7.28;;
76157;SDS011;64907;51.574;6.502;2023-10-08T07:29:01;11.40;;;7.13;;
76157;SDS011;64907;51.574;6.502;2023-10-08T07:31:32;11.23;;;7.22;;
76157;SDS011;64907;51.574;6.502;2023-10-08T07:33:59;9.20;;;8.10;;
76157;SDS011;64907;51.574;6.502;2023-10-08T07:36:40;13.32;;;7.68;;
76157;SDS011;64907;51.574;6.502;2023-10-08T07:39:06;16.52;;;8.23;;
76157;SDS011;64907;51.574;6.502;2023-10-08T07:41:33;15.73;;;8.18;;
76157;SDS011;64907;51.574;6.502;2023-10-08T07:43:59;14.88;;;8.73;;
76157;SDS011;64907;51.574;6.502;2023-10-08T07:46:24;15.97;;;8.30;;
76157;SDS011;64907;51.574;6.502;2023-10-08T07:48:51;14.45;;;7.38;;
76157;SDS011;64907;51.574;6.502;2023-10-08T07:51:16;12.10;;;8.38;;
76157;SDS011;64907;51.574;6.502;2023-10-08T07:53:48;12.90;;;8.13;;
76157;SDS011;64907;51.574;6.502;2023-10-08T07:56:14;10.00;;;7.32;;
76157;SDS011;64907;51.574;6.502;2023-10-08T07:58:39;14.33;;;6.97;;
76157;SDS011;64907;51.574;6.502;2023-10-08T08:01:05;14.75;;;8.35;;
76157;SDS011;64907;51.574;6.502;2023-10-08T08:03:31;17.13;;;7.82;;
76157;SDS011;64907;51.574;6.502;2023-10-08T08:05:56;16.25;;;7.70;;
76157;SDS011;64907;51.574;6.502;2023-10-08T08:08:23;16.48;;;9.15;;
76157;SDS011;64907;51.574;6.502;2023-10-08T08:10:52;17.90;;;10.40;;
76157;SDS011;64907;51.574;6.502;2023-10-08T08:13:23;16.83;;;8.90;;
76157;SDS011;64907;51.574;6.502;2023-10-08T08:15:48;14.70;;;8.35;;
76157;SDS011;64907;51.574;6.502;2023-10-08T08:18:16;13.93;;;8.20;;
76157;SDS011;64907;51.574;6.502;2023-10-08T08:20:47;11.80;;;8.20;;
76157;SDS011;64907;51.574;6.502;2023-10-08T08:23:12;17.90;;;9.25;;
76157;SDS011;64907;51.574;6.502;2023-10-08T08:25:39;14.43;;;8.43;;
76157;SDS011;64907;51.574;6.502;2023-10-08T08:28:12;17.92;;;9.07;;
76157;SDS011;64907;51.574;6.502;2023-10-08T08:30:45;16.27;;;7.35;;
76157;SDS011;64907;51.574;6.502;2023-10-08T08:33:17;12.70;;;7.10;;
76157;SDS011;64907;51.574;6.502;2023-10-08T08:35:58;10.75;;;6.95;;
76157;SDS011;64907;51.574;6.502;2023-10-08T08:38:25;10.20;;;6.18;;
76157;SDS011;64907;51.574;6.502;2023-10-08T08:40:50;13.30;;;9.90;;
76157;SDS011;64907;51.574;6.502;2023-10-08T08:43:17;8.90;;;7.25;;
76157;SDS011;64907;51.574;6.502;2023-10-08T08:45:42;14.95;;;6.53;;
76157;SDS011;64907;51.574;6.502;2023-10-08T08:48:08;10.95;;;5.80;;
76157;SDS011;64907;51.574;6.502;2023-10-08T08:50:33;8.80;;;5.07;;
76157;SDS011;64907;51.574;6.502;2023-10-08T08:52:59;9.20;;;5.20;;
76157;SDS011;64907;51.574;6.502;2023-10-08T08:55:25;8.20;;;5.53;;
76157;SDS011;64907;51.574;6.502;2023-10-08T08:57:52;6.82;;;4.13;;
76157;SDS011;64907;51.574;6.502;2023-10-08T09:00:19;6.82;;;3.97;;
76157;SDS011;64907;51.574;6.502;2023-10-08T09:02:46;6.82;;;4.03;;
76157;SDS011;64907;51.574;6.502;2023-10-08T09:05:12;4.35;;;3.90;;
76157;SDS011;64907;51.574;6.502;2023-10-08T09:07:57;10.30;;;4.85;;
76157;SDS011;64907;51.574;6.502;2023-10-08T09:10:23;7.70;;;4.95;;
76157;SDS011;64907;51.574;6.502;2023-10-08T09:12:55;9.52;;;5.32;;
76157;SDS011;64907;51.574;6.502;2023-10-08T09:15:23;8.98;;;4.55;;
76157;SDS011;64907;51.574;6.502;2023-10-08T09:17:49;8.65;;;5.18;;
76157;SDS011;64907;51.574;6.502;2023-10-08T09:20:14;8.38;;;5.25;;
76157;SDS011;64907;51.574;6.502;2023-10-08T09:22:40;6.97;;;4.47;;
76157;SDS011;64907;51.574;6.502;2023-10-08T09:25:05;6.53;;;4.22;;
76157;SDS011;64907;51.574;6.502;2023-10-08T09:27:32;8.15;;;4.50;;
76157;SDS011;64907;51.574;6.502;2023-10-08T09:29:57;9.10;;;4.60;;
76157;SDS011;64907;51.574;6.502;2023-10-08T09:32:24;7.03;;;5.32;;
76157;SDS011;64907;51.574;6.502;2023-10-08T09:34:50;8.75;;;5.97;;
76157;SDS011;64907;51.574;6.502;2023-10-08T09:37:16;12.40;;;6.05;;
76157;SDS011;64907;51.574;6.502;2023-10-08T09:39:42;6.82;;;6.03;;
76157;SDS011;64907;51.574;6.502;2023-10-08T09:42:07;6.90;;;6.30;;
76157;SDS011;64907;51.574;6.502;2023-10-08T09:44:36;13.00;;;6.82;;
76157;SDS011;64907;51.574;6.502;2023-10-08T09:47:02;7.30;;;6.07;;
76157;SDS011;64907;51.574;6.502;2023-10-08T09:49:30;6.82;;;6.18;;
76157;SDS011;64907;51.574;6.502;2023-10-08T09:51:58;8.93;;;7.10;;
76157;SDS011;64907;51.574;6.502;2023-10-08T09:54:27;10.07;;;6.43;;
76157;SDS011;64907;51.574;6.502;2023-10-08T09:56:56;8.07;;;6.53;;
76157;SDS011;64907;51.574;6.502;2023-10-08T09:59:24;7.00;;;6.28;;
76157;SDS011;64907;51.574;6.502;2023-10-08T10:01:50;8.95;;;6.80;;
76157;SDS011;64907;51.574;6.502;2023-10-08T10:04:24;9.73;;;6.57;;
76157;SDS011;64907;51.574;6.502;2023-10-08T10:06:49;6.30;;;5.80;;
76157;SDS011;64907;51.574;6.502;2023-10-08T10:09:22;9.45;;;7.03;;
76157;SDS011;64907;51.574;6.502;2023-10-08T10:11:48;7.97;;;6.07;;
76157;SDS011;64907;51.574;6.502;2023-10-08T10:14:14;7.32;;;6.10;;
76157;SDS011;64907;51.574;6.502;2023-10-08T10:16:39;9.32;;;5.57;;
76157;SDS011;64907;51.574;6.502;2023-10-08T10:19:06;7.45;;;5.05;;
76157;SDS011;64907;51.574;6.502;2023-10-08T10:21:41;8.02;;;5.03;;
76157;SDS011;64907;51.574;6.502;2023-10-08T10:24:12;4.78;;;3.28;;
76157;SDS011;64907;51.574;6.502;2023-10-08T10:26:46;6.00;;;3.80;;
76157;SDS011;64907;51.574;6.502;2023-10-08T10:29:18;7.45;;;4.20;;
76157;SDS011;64907;51.574;6.502;2023-10-08T10:34:13;7.65;;;4.95;;
76157;SDS011;64907;51.574;6.502;2023-10-08T10:36:41;7.63;;;4.82;;
76157;SDS011;64907;51.574;6.502;2023-10-08T10:39:06;5.80;;;4.88;;
76157;SDS011;64907;51.574;6.502;2023-10-08T10:41:45;6.28;;;5.50;;
76157;SDS011;64907;51.574;6.502;2023-10-08T10:44:11;9.55;;;6.07;;
76157;SDS011;64907;51.574;6.502;2023-10-08T10:46:38;9.50;;;6.45;;
76157;SDS011;64907;51.574;6.502;2023-10-08T10:49:07;8.88;;;6.00;;
76157;SDS011;64907;51.574;6.502;2023-10-08T10:51:52;10.02;;;8.30;;
76157;SDS011;64907;51.574;6.502;2023-10-08T10:54:19;9.23;;;7.95;;
76157;SDS011;64907;51.574;6.502;2023-10-08T10:56:49;12.95;;;8.98;;
76157;SDS011;64907;51.574;6.502;2023-10-08T10:59:28;11.23;;;8.32;;
76157;SDS011;64907;51.574;6.502;2023-10-08T11:01:54;11.32;;;7.55;;
76157;SDS011;64907;51.574;6.502;2023-10-08T11:04:38;6.57;;;5.65;;
76157;SDS011;64907;51.574;6.502;2023-10-08T11:07:13;8.77;;;6.13;;
76157;SDS011;64907;51.574;6.502;2023-10-08T11:09:41;5.78;;;5.38;;
76157;SDS011;64907;51.574;6.502;2023-10-08T11:12:10;8.23;;;6.05;;
76157;SDS011;64907;51.574;6.502;2023-10-08T11:14:41;11.30;;;9.50;;
76157;SDS011;64907;51.574;6.502;2023-10-08T11:17:13;14.73;;;10.60;;
76157;SDS011;64907;51.574;6.502;2023-10-08T11:19:42;14.27;;;11.38;;
76157;SDS011;64907;51.574;6.502;2023-10-08T11:22:07;13.00;;;10.77;;
76157;SDS011;64907;51.574;6.502;2023-10-08T11:24:41;10.75;;;8.63;;
76157;SDS011;64907;51.574;6.502;2023-10-08T11:27:08;11.65;;;8.63;;
76157;SDS011;64907;51.574;6.502;2023-10-08T11:29:47;10.38;;;7.85;;
76157;SDS011;64907;51.574;6.502;2023-10-08T11:32:15;8.98;;;7.05;;
76157;SDS011;64907;51.574;6.502;2023-10-08T11:34:45;10.35;;;7.07;;
76157;SDS011;64907;51.574;6.502;2023-10-08T11:37:14;9.75;;;6.93;;
76157;SDS011;64907;51.574;6.502;2023-10-08T11:39:50;10.18;;;6.88;;
76157;SDS011;64907;51.574;6.502;2023-10-08T11:42:17;8.40;;;6.32;;
76157;SDS011;64907;51.574;6.502;2023-10-08T11:45:01;10.45;;;6.00;;
76157;SDS011;64907;51.574;6.502;2023-10-08T11:47:49;6.22;;;5.47;;
76157;SDS011;64907;51.574;6.502;2023-10-08T11:50:14;8.15;;;5.30;;
76157;SDS011;64907;51.574;6.502;2023-10-08T11:52:44;8.68;;;5.75;;
76157;SDS011;64907;51.574;6.502;2023-10-08T11:55:10;10.32;;;5.75;;
76157;SDS011;64907;51.574;6.502;2023-10-08T11:57:39;9.27;;;5.60;;
76157;SDS011;64907;51.574;6.502;2023-10-08T12:00:10;10.40;;;6.00;;
76157;SDS011;64907;51.574;6.502;2023-10-08T12:02:44;7.65;;;5.35;;
76157;SDS011;64907;51.574;6.502;2023-10-08T12:05:09;8.32;;;5.50;;
76157;SDS011;64907;51.574;6.502;2023-10-08T12:07:43;9.75;;;5.88;;
76157;SDS011;64907;51.574;6.502;2023-10-08T12:10:09;12.88;;;6.95;;
76157;SDS011;64907;51.574;6.502;2023-10-08T12:12:36;10.90;;;6.47;;
76157;SDS011;64907;51.574;6.502;2023-10-08T12:15:01;13.33;;;7.40;;
76157;SDS011;64907;51.574;6.502;2023-10-08T12:17:28;13.15;;;9.18;;
76157;SDS011;64907;51.574;6.502;2023-10-08T12:20:04;16.52;;;10.63;;
76157;SDS011;64907;51.574;6.502;2023-10-08T12:22:37;15.30;;;9.57;;
76157;SDS011;64907;51.574;6.502;2023-10-08T12:25:02;16.95;;;11.07;;
76157;SDS011;64907;51.574;6.502;2023-10-08T12:27:29;12.50;;;9.68;;
76157;SDS011;64907;51.574;6.502;2023-10-08T12:29:55;15.52;;;10.10;;
76157;SDS011;64907;51.574;6.502;2023-10-08T12:32:23;15.68;;;11.35;;
76157;SDS011;64907;51.574;6.502;2023-10-08T12:34:51;14.15;;;10.15;;
76157;SDS011;64907;51.574;6.502;2023-10-08T12:37:18;16.77;;;11.05;;
76157;SDS011;64907;51.574;6.502;2023-10-08T12:39:43;15.18;;;12.02;;
76157;SDS011;64907;51.574;6.502;2023-10-08T12:42:35;13.73;;;9.57;;
76157;SDS011;64907;51.574;6.502;2023-10-08T12:45:00;18.42;;;9.68;;
76157;SDS011;64907;51.574;6.502;2023-10-08T12:47:27;13.85;;;8.77;;
76157;SDS011;64907;51.574;6.502;2023-10-08T12:49:53;14.15;;;9.07;;
76157;SDS011;64907;51.574;6.502;2023-10-08T12:52:22;13.38;;;8.18;;
76157;SDS011;64907;51.574;6.502;2023-10-08T12:54:48;12.30;;;8.85;;
76157;SDS011;64907;51.574;6.502;2023-10-08T12:57:14;11.70;;;8.07;;
76157;SDS011;64907;51.574;6.502;2023-10-08T12:59:44;13.43;;;7.40;;
76157;SDS011;64907;51.574;6.502;2023-10-08T13:02:13;14.90;;;8.05;;
76157;SDS011;64907;51.574;6.502;2023-10-08T13:04:41;11.63;;;8.38;;
76157;SDS011;64907;51.574;6.502;2023-10-08T13:07:06;14.43;;;8.70;;
76157;SDS011;64907;51.574;6.502;2023-10-08T13:09:31;16.98;;;9.07;;
76157;SDS011;64907;51.574;6.502;2023-10-08T13:11:57;12.00;;;8.43;;
76157;SDS011;64907;51.574;6.502;2023-10-08T13:14:24;13.70;;;8.30;;
76157;SDS011;64907;51.574;6.502;2023-10-08T13:16:50;13.40;;;8.60;;
76157;SDS011;64907;51.574;6.502;2023-10-08T13:19:18;11.55;;;7.53;;
76157;SDS011;64907;51.574;6.502;2023-10-08T13:21:44;12.77;;;8.55;;
76157;SDS011;64907;51.574;6.502;2023-10-08T13:24:09;8.52;;;7.50;;
76157;SDS011;64907;51.574;6.502;2023-10-08T13:26:35;8.90;;;7.70;;
76157;SDS011;64907;51.574;6.502;2023-10-08T13:29:02;9.38;;;6.80;;
76157;SDS011;64907;51.574;6.502;2023-10-08T13:31:27;7.57;;;6.77;;
76157;SDS011;64907;51.574;6.502;2023-10-08T13:33:53;13.27;;;7.43;;
76157;SDS011;64907;51.574;6.502;2023-10-08T13:36:22;7.93;;;6.97;;
76157;SDS011;64907;51.574;6.502;2023-10-08T13:38:48;10.05;;;7.80;;
76157;SDS011;64907;51.574;6.502;2023-10-08T13:41:15;10.32;;;7.25;;
76157;SDS011;64907;51.574;6.502;2023-10-08T13:43:44;13.95;;;7.80;;
76157;SDS011;64907;51.574;6.502;2023-10-08T13:46:13;12.70;;;8.18;;
76157;SDS011;64907;51.574;6.502;2023-10-08T13:48:40;9.50;;;6.88;;
76157;SDS011;64907;51.574;6.502;2023-10-08T13:51:06;8.95;;;7.30;;
76157;SDS011;64907;51.574;6.502;2023-10-08T13:53:38;10.57;;;7.40;;
76157;SDS011;64907;51.574;6.502;2023-10-08T13:56:05;11.32;;;7.68;;
76157;SDS011;64907;51.574;6.502;2023-10-08T13:58:30;8.88;;;6.88;;
76157;SDS011;64907;51.574;6.502;2023-10-08T14:00:56;13.18;;;6.88;;
76157;SDS011;64907;51.574;6.502;2023-10-08T14:03:22;9.02;;;6.35;;
76157;SDS011;64907;51.574;6.502;2023-10-08T14:05:47;7.95;;;6.55;;
76157;SDS011;64907;51.574;6.502;2023-10-08T14:08:19;8.25;;;6.45;;
76157;SDS011;64907;51.574;6.502;2023-10-08T14:10:45;8.73;;;6.95;;
76157;SDS011;64907;51.574;6.502;2023-10-08T14:13:15;9.70;;;6.63;;
76157;SDS011;64907;51.574;6.502;2023-10-08T14:15:46;11.57;;;7.13;;
76157;SDS011;64907;51.574;6.502;2023-10-08T14:18:13;9.43;;;7.13;;
76157;SDS011;64907;51.574;6.502;2023-10-08T14:20:42;10.32;;;6.63;;
76157;SDS011;64907;51.574;6.502;2023-10-08T14:23:08;11.07;;;7.25;;
76157;SDS011;64907;51.574;6.502;2023-10-08T14:25:33;8.43;;;6.97;;
76157;SDS011;64907;51.574;6.502;2023-10-08T14:28:05;8.30;;;7.10;;
76157;SDS011;64907;51.574;6.502;2023-10-08T14:30:33;8.32;;;6.85;;
76157;SDS011;64907;51.574;6.502;2023-10-08T14:33:00;9.52;;;6.75;;
76157;SDS011;64907;51.574;6.502;2023-10-08T14:35:28;7.80;;;5.25;;
76157;SDS011;64907;51.574;6.502;2023-10-08T14:38:12;7.10;;;4.88;;
76157;SDS011;64907;51.574;6.502;2023-10-08T14:40:57;7.80;;;5.47;;
76157;SDS011;64907;51.574;6.502;2023-10-08T14:43:41;8.93;;;4.85;;
76157;SDS011;64907;51.574;6.502;2023-10-08T14:46:08;7.45;;;5.22;;
76157;SDS011;64907;51.574;6.502;2023-10-08T14:48:34;8.00;;;4.75;;
76157;SDS011;64907;51.574;6.502;2023-10-08T14:51:00;8.57;;;4.65;;
76157;SDS011;64907;51.574;6.502;2023-10-08T14:53:26;7.80;;;4.60;;
76157;SDS011;64907;51.574;6.502;2023-10-08T14:55:53;6.20;;;4.38;;
76157;SDS011;64907;51.574;6.502;2023-10-08T14:58:19;6.60;;;4.65;;
76157;SDS011;64907;51.574;6.502;2023-10-08T15:00:44;6.97;;;4.40;;
76157;SDS011;64907;51.574;6.502;2023-10-08T15:03:11;6.38;;;4.70;;
76157;SDS011;64907;51.574;6.502;2023-10-08T15:05:37;6.70;;;4.70;;